• Join FlightAware (Why Join?)
  • Login
  • US Flag 
07:18PM EDT


 

Airport Tracker/Info


-or-


 

Live Flight TrackerFlight Track Log ✈ AWE3327 ✈ 22-Nov-2013 ✈ KDCA - KMCI

Flight Track Log - Related Links

Times and Time Zones

All times are in EST time to prevent confusion due to time zone crossing. See the AWE3327 flight status page for this flight to view local times or setup timezone preferences in your user account.

Time Position Orientation Groundspeed Altitude Reporting Facility
EST Latitude Longitude Course Direction KTS MPH feet Rate Location/Type
09:24AM 38.8333 -77.0333 264° West 155 178 1,100  Level Potomac TRACON
09:25AM 38.7833 -77.0500 195° South 199 229 2,800 2,100 Climbing Potomac TRACON
09:26AM 38.8874 -77.3917 270° West  Level Estimated
09:26AM 38.7667 -77.1333 256° West 254 292 5,400  Level Potomac TRACON
09:27AM 38.8763 -77.5099 263° West  Level FlightAware Approximate
09:27AM 38.7667 -77.2167 270° West 247 284 8,900  Level Potomac TRACON
09:28AM 38.8879 -77.6280 270° West  Level Estimated
09:29AM 38.8789 -77.7464 264° West  Level FlightAware Approximate
09:29AM 38.7886 -77.4481 277° West 296 341 13,400  Level Washington Center
09:30AM 38.7994 -77.5575 277° West 310 357 15,800 1,800 Climbing Washington Center
09:31AM 38.8058 -77.6722 274° West 322 371 17,000 1,440 Climbing Washington Center
09:32AM 38.8181 -77.8003 277° West 332 382 18,700 1,560 Climbing Washington Center
09:33AM 38.8283 -77.9153 277° West 332 382 20,100 1,620 Climbing Washington Center
09:34AM 38.8386 -78.0303 277° West 332 382 22,000 1,500 Climbing Washington Center
09:35AM 38.8486 -78.1531 276° West 332 382 23,200 1,140 Climbing Washington Center
09:36AM 38.8522 -78.2758 272° West 337 388 24,300 1,260 Climbing Washington Center
09:37AM 38.8514 -78.4039 270° West 351 404 25,700 1,320 Climbing Washington Center
09:38AM 38.8506 -78.5292 270° West 351 404 27,100 1,200 Climbing Washington Center
09:39AM 38.8494 -78.6569 269° West 356 410 28,200 1,200 Climbing Washington Center
09:40AM 38.8481 -78.7822 269° West 356 410 29,600 1,260 Climbing Washington Center
09:41AM 38.8447 -78.9075 268° West 361 415 30,700 960 Climbing Washington Center
09:42AM 38.8433 -79.0325 269° West 361 415 31,600 600 Climbing Washington Center
09:43AM 38.8397 -79.1603 268° West 361 415 32,000 660 Climbing Washington Center
09:44AM 38.8400 -79.2831 270° West 361 415 33,000 480 Climbing Washington Center
09:45AM 38.8361 -79.4108 268° West 361 415 33,000  Level Washington Center
09:46AM 38.8342 -79.5333 269° West 355 409 33,000 240 Level Washington Center
09:47AM 38.8347 -79.6425 270° West 355 409 33,600 780 Climbing Washington Center
09:48AM 38.8328 -79.7625 269° West 344 396 34,600 720 Climbing Washington Center
09:49AM 38.8247 -79.9197 266° West 332 382 35,300 540 Climbing Indianapolis Center
09:50AM 38.8236 -80.0375 269° West 331 381 35,900 300 Climbing Indianapolis Center
09:51AM 38.8200 -80.1556 268° West 331 381 36,000  Climbing Indianapolis Center
09:52AM 38.8150 -80.2767 267° West 338 389 36,000  Level Indianapolis Center
09:53AM 38.8125 -80.4014 269° West 346 398 36,000  Level Indianapolis Center
09:54AM 38.8089 -80.5258 268° West 350 403 36,000  Level Indianapolis Center
09:55AM 38.8047 -80.6506 268° West 350 403 36,000  Level Indianapolis Center
09:56AM 38.8000 -80.8025 268° West 355 409 36,000  Level Indianapolis Center
09:57AM 38.7953 -80.9272 267° West 352 405 36,000  Level Indianapolis Center
09:58AM 38.7917 -81.0531 268° West 352 405 36,000  Level Indianapolis Center
09:59AM 38.7875 -81.1775 268° West 351 404 36,000  Level Indianapolis Center
10:01AM 38.7839 -81.3019 268° West 351 404 36,000  Level Indianapolis Center
10:02AM 38.7781 -81.4308 267° West 351 404 36,000  Level Indianapolis Center
10:03AM 38.7728 -81.5761 267° West 351 404 36,000  Level Indianapolis Center
10:04AM 38.7694 -81.6933 268° West 350 403 36,000  Level Indianapolis Center
10:05AM 38.7642 -81.8167 267° West 350 403 36,000  Level Indianapolis Center
10:06AM 38.7583 -81.9375 266° West 344 396 36,000  Level Indianapolis Center
10:07AM 38.7522 -82.0850 267° West 345 397 36,000  Level Indianapolis Center
10:08AM 38.7478 -82.2081 267° West 346 398 36,000  Level Indianapolis Center
10:09AM 38.7428 -82.3308 267° West 345 397 36,000  Level Indianapolis Center
10:10AM 38.7386 -82.4544 268° West 347 399 36,000  Level Indianapolis Center
10:11AM 38.7336 -82.5778 267° West 346 398 36,000  Level Indianapolis Center
10:12AM 38.7283 -82.6997 267° West 344 396 36,000  Level Indianapolis Center
10:13AM 38.7219 -82.8228 266° West 344 396 36,000  Level Indianapolis Center
10:14AM 38.7164 -82.9708 267° West 345 397 36,000  Level Indianapolis Center
10:15AM 38.7189 -83.0947 272° West 348 400 36,000  Level Indianapolis Center
10:16AM 38.7258 -83.2253 274° West 347 399 36,000  Level Indianapolis Center
10:17AM 38.7317 -83.3500 273° West 349 402 36,000  Level Indianapolis Center
10:18AM 38.7375 -83.4725 274° West 346 398 36,000  Level Indianapolis Center
10:19AM 38.7433 -83.5967 273° West 347 399 36,000  Level Indianapolis Center
10:20AM 38.7489 -83.7186 273° West 344 396 36,000  Level Indianapolis Center
10:21AM 38.7542 -83.8419 273° West 347 399 36,000  Level Indianapolis Center
10:22AM 38.7611 -83.9906 273° West 349 402 36,000  Level Indianapolis Center
10:23AM 38.7661 -84.1131 273° West 346 398 36,000  Level Indianapolis Center
10:24AM 38.7708 -84.2383 273° West 351 404 36,000  Level Indianapolis Center
10:25AM 38.7758 -84.3608 273° West 347 399 36,000  Level Indianapolis Center
10:26AM 38.7803 -84.4861 273° West 350 403 36,000  Level Indianapolis Center
10:27AM 38.7864 -84.6219 273° West 351 404 36,000  Level Indianapolis Center
10:28AM 38.7908 -84.7458 273° West 350 403 36,000  Level Indianapolis Center
10:29AM 38.7947 -84.8700 272° West 350 403 36,000  Level Indianapolis Center
10:31AM 38.7994 -84.9942 273° West 351 404 36,000  Level Indianapolis Center
10:32AM 38.8050 -85.1425 273° West 349 402 36,000  Level Indianapolis Center
10:33AM 38.8092 -85.2656 273° West 349 402 36,000  Level Indianapolis Center
10:34AM 38.8133 -85.3908 272° West 351 404 36,000  Level Indianapolis Center
10:35AM 38.8422 -85.5117 287° West 355 409 36,000  Level Indianapolis Center
10:36AM 38.8736 -85.6314 289° West 356 410 36,000  Level Indianapolis Center
10:37AM 38.9061 -85.7517 289° West 357 411 36,000  Level Indianapolis Center
10:38AM 38.9450 -85.8953 289° West 357 411 36,000  Level Indianapolis Center
10:39AM 38.9786 -86.0158 290° West 358 412 36,000  Level Indianapolis Center
10:40AM 39.0086 -86.1381 288° West 359 413 36,000  Level Indianapolis Center
10:41AM 39.0239 -86.2633 279° West 354 407 36,000  Level Indianapolis Center
10:42AM 39.0394 -86.3864 279° West 351 404 36,000  Level Indianapolis Center
10:43AM 39.0558 -86.5108 280° West 352 405 36,000  Level Indianapolis Center
10:44AM 39.0739 -86.6608 279° West 352 405 36,000  Level Indianapolis Center
10:45AM 39.0892 -86.7853 279° West 353 406 36,000  Level Indianapolis Center
10:46AM 39.1047 -86.9094 279° West 353 406 36,000  Level Indianapolis Center
10:47AM 39.1197 -87.0336 279° West 352 405 36,000  Level Indianapolis Center
10:48AM 39.1350 -87.1553 279° West 349 402 36,000  Level Indianapolis Center
10:49AM 39.1500 -87.2800 279° West 351 404 36,000  Level Indianapolis Center
10:50AM 39.1647 -87.4044 279° West 352 405 36,000  Level Indianapolis Center
10:51AM 39.1831 -87.5547 279° West 354 407 36,000  Level Indianapolis Center
10:52AM 39.1972 -87.6811 278° West 351 404 36,000  Level Indianapolis Center
10:53AM 39.2108 -87.8067 278° West 354 407 36,000  Level Indianapolis Center
10:54AM 39.2258 -87.9339 279° West 356 410 36,000  Level Indianapolis Center
10:55AM 39.2400 -88.0572 278° West 350 403 36,000  Level Indianapolis Center
10:56AM 39.2547 -88.1819 279° West 352 405 36,000  Level Indianapolis Center
10:57AM 39.2689 -88.3094 278° West 356 410 36,000  Level Indianapolis Center
10:58AM 39.2844 -88.4622 278° West 357 411 36,000  Level Indianapolis Center
10:59AM 39.2989 -88.5911 278° West 361 415 36,000  Level Indianapolis Center
11:00AM 39.3081 -88.7197 275° West 360 414 36,000  Level Indianapolis Center
11:01AM 39.3194 -88.8481 277° West 359 413 36,000  Level Indianapolis Center
11:03AM 39.3297 -88.9761 276° West 358 412 36,000  Level Indianapolis Center
11:04AM 39.3411 -89.1064 276° West 362 417 36,000  Level Indianapolis Center
11:05AM 39.3525 -89.2364 277° West 363 418 36,000 -120 Level Indianapolis Center
11:06AM 39.3614 -89.3647 275° West 360 414 35,800 -840 Descending Indianapolis Center
11:07AM 39.3778 -89.5492 277° West 346 398 34,000 -780 Descending Kansas City Center
11:08AM 39.3869 -89.6694 276° West 340 391 34,000  Level Kansas City Center
11:09AM 39.3956 -89.7931 275° West 344 396 34,000  Level Kansas City Center
11:10AM 39.4053 -89.9219 276° West 355 409 34,000  Level Kansas City Center
11:11AM 39.4167 -90.0750 276° West 358 412 34,000  Level Kansas City Center
11:12AM 39.4261 -90.2028 276° West 359 413 34,000  Level Kansas City Center
11:13AM 39.4350 -90.3303 275° West 359 413 34,000  Level Kansas City Center
11:14AM 39.4442 -90.4561 275° West 357 411 34,000  Level Kansas City Center
11:15AM 39.4519 -90.5842 275° West 358 412 34,000  Level Kansas City Center
11:16AM 39.4608 -90.7094 275° West 354 407 34,000  Level Kansas City Center
11:17AM 39.4714 -90.8614 275° West 355 409 34,000  Level Kansas City Center
11:18AM 39.4797 -90.9889 275° West 357 411 34,000  Level Kansas City Center
11:19AM 39.4858 -91.1144 274° West 354 407 34,000  Level Kansas City Center
11:20AM 39.4953 -91.2381 276° West 349 402 34,000  Level Kansas City Center
11:21AM 39.5031 -91.3656 275° West 342 394 34,000  Level Kansas City Center
11:23AM 39.5103 -91.4869 274° West 341 392 34,000  Level Kansas City Center
11:24AM 39.5172 -91.6097 274° West 342 394 34,000 -240 Level Kansas City Center
11:25AM 39.5258 -91.7531 274° West 338 389 33,600 -600 Descending Kansas City Center
11:26AM 39.5319 -91.8756 274° West 339 390 32,800 -840 Descending Kansas City Center
11:27AM 39.5411 -91.9992 276° West 344 396 31,900 -840 Descending Kansas City Center
11:28AM 39.5475 -92.1244 274° West 348 400 31,100 -840 Descending Kansas City Center
11:29AM 39.5539 -92.2517 274° West 352 405 30,200 -1,080 Descending Kansas City Center
11:30AM 39.5603 -92.3792 274° West 354 407 28,900 -1,560 Descending Kansas City Center
11:31AM 39.5692 -92.5308 274° West 354 407 27,000 -1,680 Descending Kansas City Center
11:32AM 39.5756 -92.6567 274° West 353 406 25,500 -1,500 Descending Kansas City Center
11:33AM 39.5808 -92.7803 273° West 349 402 23,900 -1,500 Descending Kansas City Center
11:34AM 39.5875 -92.9022 274° West 346 398 22,400 -1,440 Descending Kansas City Center
11:35AM 39.5939 -93.0214 274° West 340 391 21,000 -1,440 Descending Kansas City Center
11:36AM 39.5986 -93.1381 273° West 331 381 19,500 -1,560 Descending Kansas City Center
11:37AM 39.6050 -93.2764 273° West 324 373 17,800 -1,260 Descending Kansas City Center
11:38AM 39.6092 -93.3936 273° West 326 375 16,900 -1,140 Descending Kansas City Center
11:39AM 39.6150 -93.5114 274° West 328 377 15,500 -1,380 Descending Kansas City Center
11:40AM 39.6203 -93.6267 273° West 323 372 14,100 -1,440 Descending Kansas City Center
11:41AM 39.6256 -93.7500 273° West 315 362 12,600 -1,020 Descending Kansas City Center
11:42AM 39.6281 -93.8756 272° West 311 358 12,000 -300 Descending Kansas City Center
11:43AM 39.5836 -93.9683 238° Southwest 318 366 12,000  Level Kansas City Center
11:44AM 39.5369 -94.0606 237° Southwest 319 367 12,000  Level Kansas City Center
11:45AM 39.4831 -94.1681 237° Southwest 318 366 12,000 -480 Level Kansas City Center
11:46AM 39.4381 -94.2572 237° Southwest 309 356 11,100 -1,140 Descending Kansas City Center
11:47AM 39.3903 -94.3494 236° Southwest 280 322 9,700 -1,260 Descending Kansas City Center
11:48AM 39.3494 -94.4303 237° Southwest 281 323 8,500 -1,260 Descending Kansas City Center
11:49AM 39.3006 -94.5250 236° Southwest 283 326 7,100 -1,140 Descending Kansas City Center
11:50AM 39.2561 -94.5972 232° Southwest 272 313 6,200 -600 Descending Kansas City Center
11:51AM 39.1808 -94.6231 195° South 250 288 5,900 -780 Descending Kansas City Center
11:52AM 39.1167 -94.6447 195° South 248 285 4,700 -1,020 Descending Kansas City Center
11:54AM 39.0897 -94.7117 243° Southwest 226 260 3,800 -840 Descending Kansas City Center
11:55AM 39.1236 -94.7689 307° West 212 244 3,000 -420 Descending Kansas City Center
11:56AM 39.1822 -94.7614 North 193 222 3,000 -300 Level Kansas City Center
11:57AM 39.2256 -94.7497 12° North 171 197 2,500 -660 Descending Kansas City Center
11:58AM 39.2614 -94.7392 13° North 142 163 1,700 -720 Descending Kansas City Center
11:59AM 39.3019 -94.7269 13° North 132 152 1,000 -720 Descending Kansas City Center